»·PEaware :: N2RF KBUR-KMYF

N2RF :: KBUR-KMYF

FLIGHT INFORMATION

Flight Status: Arrived
Operator: Privately registered:
United States
More flights under this callsign
Pilot: Max W. (2591)
Aircraft: CESSNA 550 CITATION 2/S2/BRAVO
(C550)
More flights by this aircraft type
Origin: KBUR Bob Hope-Burbank
United States
Destination: KMYF Montgomery
United States
More flights between these airports :: More routes between these airports
Route: +VNY3 TWINE V518 KIMMO V459 SLI SLI171 LAX118 CARDI MZB320 MZB
File this flight plan on PilotEdge
Remarks:
Altitude:
(Current/Filed)
11,000ft
Speed:
(Current/Filed)
0kts
Departed: 02-Dec-19 05:15 PM
Arrived: 02-Dec-19 05:52 PM
Distance/Time
Traveled:
103nm/0:37
Distance/Time
To Go:
Arrived

Flight Plot

Page will automatically refresh every two minutes.


Map Options




Map Legend


Flown Route
Filed Route
Departure Airport
Arrival Airport
Navaid (VOR, NDB)
Fix

Horizontal Profiles

Position Reports

Time Latitude Longitude Heading Altitude Ground
Speed
02-Dec-19 16:58 34.200197 -118.359467 169 780ft 0kts
02-Dec-19 16:59 34.200197 -118.359467 169 780ft 0kts
02-Dec-19 17:00 34.200197 -118.359467 169 780ft 0kts
02-Dec-19 17:01 34.200197 -118.359467 169 780ft 0kts
02-Dec-19 17:02 34.200197 -118.359467 169 780ft 0kts
02-Dec-19 17:03 34.200197 -118.359467 169 780ft 0kts
02-Dec-19 17:04 34.200197 -118.359467 169 780ft 0kts
02-Dec-19 17:05 34.200197 -118.359467 169 780ft 0kts
02-Dec-19 17:06 34.200197 -118.359467 169 780ft 0kts
02-Dec-19 17:07 34.200197 -118.359467 169 780ft 0kts
02-Dec-19 17:08 34.200197 -118.359467 169 780ft 0kts
02-Dec-19 17:09 34.200084 -118.358233 345 780ft 12kts
02-Dec-19 17:10 34.203449 -118.359164 347 780ft 13kts
02-Dec-19 17:11 34.208178 -118.360446 344 780ft 10kts
02-Dec-19 17:12 34.211939 -118.361377 34 780ft 0kts
02-Dec-19 17:13 34.211954 -118.361364 34 780ft 2kts
02-Dec-19 17:14 34.200143 -118.357145 168 1254ft 137kts
02-Dec-19 17:15 34.161877 -118.381593 226 4907ft 204kts
02-Dec-19 17:16 34.157925 -118.454651 271 8960ft 227kts
02-Dec-19 17:17 34.164692 -118.532034 289 10982ft 271kts
02-Dec-19 17:18 34.235095 -118.577132 336 10981ft 322kts
02-Dec-19 17:19 34.319968 -118.613763 345 10990ft 326kts
02-Dec-19 17:20 34.381834 -118.546103 90 11013ft 339kts
02-Dec-19 17:21 34.390921 -118.431290 70 11020ft 349kts
02-Dec-19 17:22 34.354687 -118.355504 185 11017ft 271kts
02-Dec-19 17:23 34.280771 -118.339916 162 11002ft 272kts
02-Dec-19 17:24 34.211742 -118.301804 158 10987ft 272kts
02-Dec-19 17:25 34.146799 -118.264129 159 10988ft 271kts
02-Dec-19 17:26 34.078627 -118.224667 158 10995ft 270kts
02-Dec-19 17:27 34.010571 -118.185400 158 10997ft 270kts
02-Dec-19 17:28 33.942468 -118.146118 158 10996ft 270kts
02-Dec-19 17:29 33.874969 -118.107290 158 10983ft 270kts
02-Dec-19 17:30 33.809685 -118.069809 158 10983ft 271kts
02-Dec-19 17:31 33.746604 -118.018730 145 10982ft 276kts
02-Dec-19 17:32 33.687088 -117.959746 145 10982ft 277kts
02-Dec-19 17:33 33.627377 -117.900813 145 10982ft 277kts
02-Dec-19 17:34 33.567603 -117.842074 145 10988ft 277kts
02-Dec-19 17:35 33.513411 -117.788913 145 11000ft 277kts
02-Dec-19 17:36 33.453560 -117.730348 145 11014ft 277kts
02-Dec-19 17:37 33.393653 -117.671809 144 11019ft 278kts
02-Dec-19 17:38 33.333708 -117.613320 144 11019ft 278kts
02-Dec-19 17:39 33.273491 -117.554669 144 11018ft 279kts
02-Dec-19 17:40 33.215988 -117.498803 144 11018ft 279kts
02-Dec-19 17:41 33.155515 -117.440283 145 11010ft 279kts
02-Dec-19 17:42 33.096962 -117.388395 145 9446ft 234kts
02-Dec-19 17:43 33.049511 -117.346447 145 7375ft 231kts
02-Dec-19 17:44 32.997924 -117.300703 144 5205ft 225kts
02-Dec-19 17:45 32.957712 -117.256050 133 5013ft 198kts
02-Dec-19 17:46 32.917775 -117.204837 133 5010ft 218kts
02-Dec-19 17:47 32.878579 -117.154728 133 3802ft 204kts
02-Dec-19 17:48 32.850360 -117.109670 112 2995ft 150kts
02-Dec-19 17:49 32.822474 -117.082753 189 2071ft 149kts
02-Dec-19 17:50 32.805105 -117.113836 306 884ft 121kts
02-Dec-19 17:51 32.816071 -117.140048 249 405ft 22kts
02-Dec-19 17:52 32.814925 -117.142198 116 405ft 0kts
02-Dec-19 17:53 32.813860 -117.139470 112 405ft 18kts
02-Dec-19 17:54 32.812248 -117.135650 156 405ft 9kts
02-Dec-19 17:55 32.811877 -117.136317 24 405ft 0kts
02-Dec-19 18:01 32.811878 -117.136316 24 405ft 0kts
02-Dec-19 18:02 32.811878 -117.136316 24 405ft 0kts
02-Dec-19 18:03 32.811878 -117.136316 24 405ft 0kts
02-Dec-19 18:04 32.811796 -117.135624 29 405ft 3kts

Navigation Log

Ident Type
Flight plan parsing failed, navigation log unavailable